createdAt,value
2019-02-27T00:01:01.099Z,1.87
2019-02-27T00:03:29.711Z,1.90
2019-02-27T00:05:58.299Z,1.80
2019-02-27T00:08:27.455Z,1.90
2019-02-27T00:10:56.094Z,1.90
2019-02-27T00:13:25.409Z,2.00
2019-02-27T00:15:54.094Z,2.00
2019-02-27T00:18:23.966Z,1.90
2019-02-27T00:20:53.075Z,1.80
2019-02-27T00:23:23.885Z,1.90
2019-02-27T00:25:51.950Z,1.80
2019-02-27T00:28:23.142Z,1.90
2019-02-27T00:30:50.806Z,1.93
2019-02-27T00:33:19.368Z,2.00
2019-02-27T00:35:47.916Z,1.80
2019-02-27T00:38:16.480Z,2.00
2019-02-27T00:40:45.026Z,2.10
2019-02-27T00:43:13.618Z,1.80
2019-02-27T00:45:42.176Z,1.70
2019-02-27T00:48:10.727Z,1.87
2019-02-27T00:50:39.705Z,1.70
2019-02-27T00:53:08.336Z,1.90
2019-02-27T00:55:39.376Z,1.83
2019-02-27T00:58:07.254Z,2.00
2019-02-27T01:00:38.947Z,1.80
2019-02-27T01:03:06.113Z,2.00
2019-02-27T01:05:34.716Z,2.00
2019-02-27T01:08:03.272Z,1.80
2019-02-27T01:10:31.816Z,2.00
2019-02-27T01:13:00.412Z,1.93
2019-02-27T01:15:28.973Z,2.00
2019-02-27T01:17:58.179Z,2.00
2019-02-27T01:20:26.911Z,1.90
2019-02-27T01:22:55.470Z,2.00
2019-02-27T01:25:24.022Z,2.00
2019-02-27T01:27:52.603Z,2.30
2019-02-27T01:30:24.026Z,2.00
2019-02-27T01:32:51.450Z,2.00
2019-02-27T01:35:20.026Z,2.00
2019-02-27T01:37:48.583Z,2.00
2019-02-27T01:40:17.946Z,1.77
2019-02-27T01:42:47.398Z,1.73
2019-02-27T01:45:20.635Z,1.87
2019-02-27T01:47:46.280Z,2.70
2019-02-27T01:50:46.363Z,2.00
2019-02-27T01:53:14.936Z,1.90
2019-02-27T01:55:43.479Z,1.80
2019-02-27T01:58:12.067Z,1.97
2019-02-27T02:00:40.972Z,2.00
2019-02-27T02:03:11.146Z,2.10
2019-02-27T02:05:39.835Z,2.00
2019-02-27T02:08:13.450Z,2.00
2019-02-27T02:10:38.808Z,2.13
2019-02-27T02:13:09.339Z,2.10
2019-02-27T02:16:06.233Z,2.10
2019-02-27T02:18:40.420Z,2.00
2019-02-27T02:21:34.331Z,2.10
2019-02-27T02:24:28.939Z,2.10
2019-02-27T02:27:31.579Z,2.13
2019-02-27T02:30:34.247Z,2.00
2019-02-27T02:33:17.833Z,2.10
2019-02-27T02:36:04.068Z,2.10
2019-02-27T02:38:46.727Z,2.10
2019-02-27T02:41:47.969Z,2.10
2019-02-27T02:44:31.831Z,2.07
2019-02-27T02:47:19.979Z,2.13
2019-02-27T02:49:53.561Z,2.10
2019-02-27T02:52:43.909Z,2.20
2019-02-27T02:55:34.191Z,2.80
2019-02-27T02:58:14.779Z,2.07
2019-02-27T03:01:01.110Z,1.80
2019-02-27T03:03:50.758Z,2.10
2019-02-27T03:06:26.381Z,2.10
2019-02-27T03:09:16.991Z,2.10
2019-02-27T03:12:04.759Z,2.90
2019-02-27T03:14:55.747Z,1.97
2019-02-27T03:17:45.151Z,2.00
2019-02-27T03:20:52.395Z,2.97
2019-02-27T03:23:42.739Z,2.20
2019-02-27T03:26:17.803Z,2.10
2019-02-27T03:29:15.794Z,2.80
2019-02-27T03:31:57.672Z,2.80
2019-02-27T03:34:34.418Z,2.30
2019-02-27T03:37:28.497Z,2.17
2019-02-27T03:40:19.328Z,2.80
2019-02-27T03:42:57.751Z,2.60
2019-02-27T03:45:54.571Z,1.90
2019-02-27T03:48:44.952Z,2.20
2019-02-27T03:51:29.716Z,2.13
2019-02-27T03:54:01.813Z,2.50
2019-02-27T03:56:35.915Z,2.10
2019-02-27T03:59:23.690Z,1.77
2019-02-27T04:02:11.441Z,2.17
2019-02-27T04:05:07.371Z,2.53
2019-02-27T04:08:08.705Z,2.20
2019-02-27T04:10:37.559Z,2.30
2019-02-27T04:13:06.103Z,2.70
2019-02-27T04:15:34.749Z,2.10
2019-02-27T04:18:02.626Z,2.20
2019-02-27T04:20:31.179Z,1.93
2019-02-27T04:22:59.754Z,2.20
2019-02-27T04:25:31.003Z,2.10
2019-02-27T04:27:58.666Z,2.10
2019-02-27T04:30:27.230Z,1.90
2019-02-27T04:32:55.831Z,2.10
2019-02-27T04:35:24.382Z,1.90
2019-02-27T04:37:54.414Z,2.20
2019-02-27T04:40:23.359Z,2.13
2019-02-27T04:42:51.910Z,2.10
2019-02-27T04:45:20.474Z,2.10
2019-02-27T04:47:49.043Z,2.70
2019-02-27T04:50:17.630Z,2.90
2019-02-27T04:52:46.174Z,1.90
2019-02-27T04:55:15.747Z,2.80
2019-02-27T04:57:45.371Z,2.20
2019-02-27T05:00:14.595Z,2.50
2019-02-27T05:02:43.176Z,2.30
2019-02-27T05:05:11.731Z,2.17
2019-02-27T05:07:40.291Z,2.20
2019-02-27T05:10:08.870Z,2.10
2019-02-27T05:12:37.408Z,2.70
2019-02-27T05:15:06.023Z,2.10
2019-02-27T05:17:34.582Z,2.30
2019-02-27T05:20:03.140Z,2.07
2019-02-27T05:22:31.763Z,2.10
2019-02-27T05:25:00.431Z,2.20
2019-02-27T05:27:29.042Z,2.00
2019-02-27T05:29:57.589Z,2.77
2019-02-27T05:32:28.290Z,2.07
2019-02-27T05:34:56.441Z,2.10
2019-02-27T05:37:24.999Z,2.00
2019-02-27T05:39:53.775Z,2.00
2019-02-27T05:42:22.343Z,2.00
2019-02-27T05:44:55.580Z,1.97
2019-02-27T05:47:21.206Z,2.00
2019-02-27T05:49:49.674Z,2.10
2019-02-27T05:52:18.231Z,2.90
2019-02-27T05:54:46.815Z,2.20
2019-02-27T05:57:15.366Z,1.90
2019-02-27T05:59:43.935Z,2.10
2019-02-27T06:02:12.507Z,2.10
2019-02-27T06:04:41.078Z,2.70
2019-02-27T06:07:09.628Z,2.00
2019-02-27T06:09:38.224Z,2.13
2019-02-27T06:12:07.526Z,1.90
2019-02-27T06:14:36.623Z,2.10
2019-02-27T06:17:05.213Z,2.97
2019-02-27T06:19:34.353Z,2.00
2019-02-27T06:22:02.987Z,2.27
2019-02-27T06:24:31.554Z,2.03
2019-02-27T06:27:00.143Z,2.10
2019-02-27T06:29:28.731Z,2.17
2019-02-27T06:31:57.312Z,2.27
2019-02-27T06:34:25.899Z,2.10
2019-02-27T06:36:54.441Z,2.10
2019-02-27T06:39:23.042Z,2.00
2019-02-27T06:41:51.650Z,2.10
2019-02-27T06:44:20.259Z,2.10
2019-02-27T06:46:51.200Z,2.37
2019-02-27T06:49:19.153Z,2.53
2019-02-27T06:51:47.798Z,2.00
2019-02-27T06:54:18.365Z,2.33
2019-02-27T06:56:46.658Z,2.20
2019-02-27T06:59:15.219Z,2.40
2019-02-27T07:01:45.049Z,2.13
2019-02-27T07:04:14.096Z,2.40
2019-02-27T07:06:42.665Z,2.90
2019-02-27T07:09:12.183Z,2.30
2019-02-27T07:11:44.884Z,2.20
2019-02-27T07:14:11.090Z,2.30
2019-02-27T07:16:39.647Z,2.23
2019-02-27T07:19:08.310Z,2.83
2019-02-27T07:21:36.870Z,2.80
2019-02-27T07:24:05.450Z,2.30
2019-02-27T07:26:34.033Z,1.87
2019-02-27T07:29:02.651Z,2.33
2019-02-27T07:31:31.330Z,2.20
2019-02-27T07:33:59.895Z,2.80
2019-02-27T07:36:28.451Z,1.93
2019-02-27T07:38:57.541Z,2.20
2019-02-27T07:41:26.892Z,2.03
2019-02-27T07:43:55.466Z,2.63
2019-02-27T07:46:24.063Z,2.00
2019-02-27T07:48:56.476Z,2.10
2019-02-27T07:51:24.103Z,2.00
2019-02-27T07:53:53.797Z,1.80
2019-02-27T07:56:22.875Z,1.80
2019-02-27T07:58:51.414Z,2.10
2019-02-27T08:01:21.005Z,2.10
2019-02-27T08:03:50.267Z,2.20
2019-02-27T08:06:18.826Z,1.77
2019-02-27T08:08:47.395Z,1.87
2019-02-27T08:11:15.979Z,2.00
2019-02-27T08:13:44.592Z,1.80
2019-02-27T08:16:13.178Z,1.83
2019-02-27T08:18:41.745Z,2.00
2019-02-27T08:21:10.390Z,1.80
2019-02-27T08:23:38.955Z,2.00
2019-02-27T08:26:07.518Z,1.80
2019-02-27T08:28:36.139Z,2.20
2019-02-27T08:31:04.696Z,1.90
2019-02-27T08:33:33.773Z,1.70
2019-02-27T08:36:02.363Z,1.70
2019-02-27T08:38:30.915Z,1.60
2019-02-27T08:40:59.487Z,1.70
2019-02-27T08:43:30.348Z,2.30
2019-02-27T08:46:02.065Z,1.70
2019-02-27T08:48:28.811Z,1.70
2019-02-27T08:50:57.392Z,1.60
2019-02-27T08:53:26.787Z,1.60
2019-02-27T08:55:55.656Z,1.50
2019-02-27T08:58:26.684Z,1.50
2019-02-27T09:00:54.498Z,1.70
2019-02-27T09:03:23.284Z,1.67
2019-02-27T09:05:53.757Z,1.60
2019-02-27T09:08:22.143Z,1.60
2019-02-27T09:10:50.702Z,1.70
2019-02-27T09:13:19.302Z,1.60
2019-02-27T09:15:47.899Z,1.50
2019-02-27T09:18:16.466Z,1.40
2019-02-27T09:20:45.043Z,1.50
2019-02-27T09:23:13.667Z,1.60
2019-02-27T09:25:42.995Z,1.60
2019-02-27T09:28:12.575Z,1.60
2019-02-27T09:30:41.307Z,1.40
2019-02-27T09:33:09.870Z,1.60
2019-02-27T09:35:38.878Z,1.50
2019-02-27T09:38:08.669Z,1.40
2019-02-27T09:40:38.944Z,1.40
2019-02-27T09:43:07.792Z,1.30
2019-02-27T09:45:36.447Z,1.30
2019-02-27T09:48:05.065Z,1.30
2019-02-27T09:50:34.475Z,1.33
2019-02-27T09:53:03.702Z,1.30
2019-02-27T09:55:33.053Z,1.30
2019-02-27T09:58:01.633Z,1.20
2019-02-27T10:00:49.813Z,1.30
2019-02-27T10:03:21.252Z,1.47
2019-02-27T10:05:48.782Z,1.30
2019-02-27T10:08:17.384Z,1.40
2019-02-27T10:10:46.167Z,1.30
2019-02-27T10:13:14.843Z,1.27
2019-02-27T10:15:43.490Z,1.40
2019-02-27T10:18:12.091Z,1.27
2019-02-27T10:20:40.671Z,1.30
2019-02-27T10:23:09.230Z,1.30
2019-02-27T10:25:37.825Z,1.30
2019-02-27T10:28:06.374Z,1.30
2019-02-27T10:30:34.935Z,1.20
2019-02-27T10:33:03.663Z,1.30
2019-02-27T10:35:34.580Z,1.30
2019-02-27T10:38:02.774Z,1.20
2019-02-27T10:40:31.370Z,1.10
2019-02-27T10:42:59.934Z,1.27
2019-02-27T10:45:28.574Z,1.27
2019-02-27T10:47:57.160Z,1.10
2019-02-27T10:50:25.757Z,1.40
2019-02-27T10:52:54.355Z,1.10
2019-02-27T10:55:22.997Z,1.20
2019-02-27T10:57:51.557Z,1.20
2019-02-27T11:00:32.339Z,1.20
2019-02-27T11:03:00.906Z,1.10
2019-02-27T11:05:29.898Z,1.20
2019-02-27T11:07:58.512Z,1.30
2019-02-27T11:10:27.128Z,1.10
2019-02-27T11:12:55.710Z,1.20
2019-02-27T11:15:24.354Z,1.20
2019-02-27T11:17:53.492Z,1.10
2019-02-27T11:20:24.511Z,1.10
2019-02-27T11:22:52.672Z,1.20
2019-02-27T11:25:22.553Z,1.00
2019-02-27T11:27:51.859Z,1.20
2019-02-27T11:30:21.606Z,1.27
2019-02-27T11:32:50.191Z,1.10
2019-02-27T11:35:18.769Z,1.20
2019-02-27T11:37:47.801Z,1.10
2019-02-27T11:40:17.619Z,1.10
2019-02-27T11:42:46.563Z,1.00
2019-02-27T11:45:15.343Z,1.13
2019-02-27T11:47:47.727Z,0.90
2019-02-27T11:50:17.833Z,1.10
2019-02-27T11:52:49.159Z,1.10
2019-02-27T11:55:17.401Z,1.10
2019-02-27T11:57:46.234Z,1.10
2019-02-27T12:00:17.936Z,1.10
2019-02-27T12:02:47.527Z,1.10
2019-02-27T12:05:16.451Z,1.00
2019-02-27T12:07:45.141Z,0.80
2019-02-27T12:10:17.244Z,1.10
2019-02-27T12:12:45.910Z,1.00
2019-02-27T12:15:15.158Z,1.00
2019-02-27T12:17:43.842Z,0.90
2019-02-27T12:20:12.671Z,0.90
2019-02-27T12:22:41.259Z,0.80
2019-02-27T12:25:10.669Z,1.00
2019-02-27T12:27:49.009Z,0.93
2019-02-27T12:30:13.926Z,0.90
2019-02-27T12:32:43.982Z,1.00
2019-02-27T12:35:13.857Z,1.00
2019-02-27T12:37:43.538Z,0.90
2019-02-27T12:40:17.462Z,0.90
2019-02-27T12:42:46.234Z,0.90
2019-02-27T12:45:16.893Z,1.00
2019-02-27T12:47:45.783Z,1.00
2019-02-27T12:50:15.226Z,0.93
2019-02-27T12:52:44.814Z,0.90
2019-02-27T12:55:14.318Z,0.90
2019-02-27T12:57:42.955Z,0.90
2019-02-27T13:00:13.085Z,0.80
2019-02-27T13:02:41.850Z,0.90
2019-02-27T13:05:10.981Z,0.90
2019-02-27T13:07:42.174Z,0.90
2019-02-27T13:10:10.825Z,0.90
2019-02-27T13:12:39.632Z,0.90
2019-02-27T13:15:08.742Z,0.97
2019-02-27T13:17:58.186Z,0.97
2019-02-27T13:20:26.946Z,0.90
2019-02-27T13:22:55.511Z,0.90
2019-02-27T13:25:24.884Z,0.90
2019-02-27T13:27:53.646Z,1.00
2019-02-27T13:30:22.206Z,1.00
2019-02-27T13:32:50.900Z,0.83
2019-02-27T13:35:20.091Z,1.00
2019-02-27T13:37:49.809Z,1.00
2019-02-27T13:40:18.767Z,0.97
2019-02-27T13:42:47.414Z,1.00
2019-02-27T13:45:17.049Z,0.90
2019-02-27T13:47:45.661Z,0.87
2019-02-27T13:50:14.454Z,1.00
2019-02-27T13:52:44.521Z,1.00
2019-02-27T13:55:13.818Z,0.97
2019-02-27T13:57:42.594Z,1.00
2019-02-27T14:00:13.082Z,0.90
2019-02-27T14:02:43.433Z,0.90
2019-02-27T14:05:13.583Z,0.80
2019-02-27T14:07:42.231Z,0.83
2019-02-27T14:10:16.900Z,0.87
2019-02-27T14:12:41.502Z,0.90
2019-02-27T14:15:10.631Z,1.00
2019-02-27T14:17:42.106Z,1.00
2019-02-27T14:20:10.934Z,0.90
2019-02-27T14:22:41.228Z,0.90
2019-02-27T14:25:13.318Z,0.90
2019-02-27T14:27:41.878Z,0.87
2019-02-27T14:30:12.434Z,0.93
2019-02-27T14:32:41.009Z,0.97
2019-02-27T14:35:09.588Z,1.00
2019-02-27T14:37:38.270Z,0.90
2019-02-27T14:40:08.115Z,0.90
2019-02-27T14:42:36.694Z,0.90
2019-02-27T14:45:06.564Z,0.90
2019-02-27T14:47:39.131Z,1.00
2019-02-27T14:50:10.231Z,0.97
2019-02-27T14:52:38.825Z,0.80
2019-02-27T14:55:07.907Z,0.80
2019-02-27T14:57:36.523Z,1.00
2019-02-27T15:00:06.670Z,0.90
2019-02-27T15:02:35.618Z,1.07
2019-02-27T15:05:08.205Z,1.00
2019-02-27T15:07:34.674Z,0.90
2019-02-27T15:10:03.617Z,0.90
2019-02-27T15:12:33.133Z,1.00
2019-02-27T15:15:02.814Z,1.00
2019-02-27T15:17:32.730Z,0.93
2019-02-27T15:20:04.656Z,1.10
2019-02-27T15:22:31.675Z,1.00
2019-02-27T15:25:00.289Z,0.90
2019-02-27T15:27:28.942Z,0.90
2019-02-27T15:29:57.615Z,0.80
2019-02-27T15:32:29.395Z,0.90
2019-02-27T15:34:56.579Z,0.90
2019-02-27T15:37:25.604Z,0.73
2019-02-27T15:39:55.662Z,0.90
2019-02-27T15:42:24.371Z,1.00
2019-02-27T15:44:54.936Z,1.00
2019-02-27T15:47:23.914Z,1.00
2019-02-27T15:49:52.638Z,1.00
2019-02-27T15:52:21.287Z,0.90
2019-02-27T15:54:50.214Z,0.90
2019-02-27T15:57:18.799Z,1.00
2019-02-27T15:59:57.416Z,0.90
2019-02-27T16:02:36.874Z,1.00
2019-02-27T16:05:05.358Z,0.97
2019-02-27T16:07:33.954Z,1.00
2019-02-27T16:10:06.771Z,1.00
2019-02-27T16:12:34.327Z,1.00
2019-02-27T16:15:03.041Z,1.07
2019-02-27T16:17:31.975Z,1.10
2019-02-27T16:20:00.583Z,1.13
2019-02-27T16:22:34.740Z,1.10
2019-02-27T16:25:03.357Z,1.10
2019-02-27T16:27:32.186Z,0.90
2019-02-27T16:30:02.246Z,1.00
2019-02-27T16:32:31.474Z,0.90
2019-02-27T16:35:00.101Z,1.00
2019-02-27T16:37:32.108Z,1.00
2019-02-27T16:40:06.862Z,1.00
2019-02-27T16:42:36.437Z,0.93
2019-02-27T16:45:13.357Z,1.00
2019-02-27T16:47:42.091Z,1.20
2019-02-27T16:50:13.502Z,0.97
2019-02-27T16:52:43.623Z,1.10
2019-02-27T16:55:13.967Z,1.00
2019-02-27T16:57:42.574Z,1.20
2019-02-27T17:00:12.213Z,1.10
2019-02-27T17:02:42.063Z,1.20
2019-02-27T17:05:10.788Z,1.10
2019-02-27T17:07:39.370Z,1.10
2019-02-27T17:10:09.652Z,1.00
2019-02-27T17:12:40.862Z,1.13
2019-02-27T17:15:10.801Z,1.20
2019-02-27T17:17:39.481Z,1.20
2019-02-27T17:20:12.507Z,1.03
2019-02-27T17:22:39.495Z,1.10
2019-02-27T17:25:08.458Z,1.10
2019-02-27T17:27:37.116Z,1.30
2019-02-27T17:30:07.734Z,1.10
2019-02-27T17:32:36.293Z,1.23
2019-02-27T17:35:04.867Z,1.20
2019-02-27T17:37:33.442Z,1.10
2019-02-27T17:40:02.411Z,1.30
2019-02-27T17:42:32.081Z,1.30
2019-02-27T17:45:00.654Z,1.20
2019-02-27T17:47:29.373Z,1.10
2019-02-27T17:49:58.247Z,1.20
2019-02-27T17:52:26.965Z,1.30
2019-02-27T17:54:55.539Z,1.30
2019-02-27T17:57:25.083Z,1.33
2019-02-27T17:59:53.815Z,1.30
2019-02-27T18:02:22.533Z,1.30
2019-02-27T18:04:53.701Z,1.27
2019-02-27T18:07:21.484Z,1.30
2019-02-27T18:09:50.055Z,1.30
2019-02-27T18:12:18.699Z,1.40
2019-02-27T18:14:47.333Z,1.30
2019-02-27T18:17:15.982Z,1.30
2019-02-27T18:19:47.411Z,1.40
2019-02-27T18:22:14.855Z,1.20
2019-02-27T18:24:43.706Z,1.30
2019-02-27T18:27:13.111Z,1.30
2019-02-27T18:29:43.743Z,1.40
2019-02-27T18:32:12.011Z,1.30
2019-02-27T18:34:42.392Z,1.40
2019-02-27T18:37:10.847Z,1.33
2019-02-27T18:39:39.493Z,1.40
2019-02-27T18:42:08.042Z,1.30
2019-02-27T18:44:38.355Z,1.40
2019-02-27T18:47:06.919Z,1.30
2019-02-27T18:49:35.515Z,1.43
2019-02-27T18:52:06.393Z,1.73
2019-02-27T18:54:34.409Z,1.50
2019-02-27T18:57:02.985Z,1.40
2019-02-27T18:59:31.616Z,1.30
2019-02-27T19:02:00.199Z,1.40
2019-02-27T19:04:28.789Z,1.40
2019-02-27T19:07:17.293Z,1.37
2019-02-27T19:09:47.078Z,1.57
2019-02-27T19:12:15.757Z,1.60
2019-02-27T19:14:44.363Z,1.50
2019-02-27T19:17:12.939Z,1.40
2019-02-27T19:19:41.508Z,1.30
2019-02-27T19:22:11.322Z,1.57
2019-02-27T19:24:40.095Z,1.40
2019-02-27T19:27:08.669Z,1.40
2019-02-27T19:29:37.342Z,1.50
2019-02-27T19:32:05.950Z,1.20
2019-02-27T19:34:34.667Z,1.53
2019-02-27T19:37:05.186Z,1.30
2019-02-27T19:39:33.638Z,1.40
2019-02-27T19:42:02.232Z,1.50
2019-02-27T19:44:30.831Z,1.40
2019-02-27T19:46:59.515Z,1.50
2019-02-27T19:49:28.071Z,1.60
2019-02-27T19:51:56.655Z,1.90
2019-02-27T19:54:25.217Z,1.60
2019-02-27T19:56:55.146Z,1.50
2019-02-27T19:59:24.995Z,1.27
2019-02-27T20:01:54.264Z,1.80
2019-02-27T20:04:22.849Z,1.50
2019-02-27T20:06:51.480Z,1.47
2019-02-27T20:09:20.536Z,1.60
2019-02-27T20:11:49.197Z,1.53
2019-02-27T20:14:17.770Z,1.30
2019-02-27T20:16:46.346Z,1.60
2019-02-27T20:19:22.213Z,1.40
2019-02-27T20:21:45.225Z,1.57
2019-02-27T20:24:14.707Z,1.40
2019-02-27T20:26:44.779Z,1.40
2019-02-27T20:29:13.677Z,1.50
2019-02-27T20:31:42.227Z,1.60
2019-02-27T20:34:11.594Z,1.50
2019-02-27T20:36:40.288Z,1.60
2019-02-27T20:39:08.854Z,1.60
2019-02-27T20:41:40.965Z,1.70
2019-02-27T20:44:07.818Z,1.60
2019-02-27T20:46:36.378Z,1.50
2019-02-27T20:49:04.967Z,1.60
2019-02-27T20:51:33.530Z,1.50
2019-02-27T20:54:02.682Z,1.67
2019-02-27T20:56:32.285Z,1.57
2019-02-27T20:59:02.089Z,1.70
2019-02-27T21:01:30.819Z,1.50
2019-02-27T21:04:02.344Z,1.70
2019-02-27T21:06:29.851Z,1.60
2019-02-27T21:08:58.440Z,1.60
2019-02-27T21:11:29.557Z,1.50
2019-02-27T21:13:57.474Z,1.60
2019-02-27T21:16:26.076Z,1.50
2019-02-27T21:18:54.655Z,1.43
2019-02-27T21:21:23.268Z,1.70
2019-02-27T21:23:51.847Z,1.60
2019-02-27T21:26:22.961Z,1.60
2019-02-27T21:28:58.094Z,1.50
2019-02-27T21:31:26.630Z,1.60
2019-02-27T21:33:51.479Z,1.60
2019-02-27T21:36:20.078Z,1.60
2019-02-27T21:38:50.337Z,1.50
2019-02-27T21:41:19.055Z,1.50
2019-02-27T21:43:47.638Z,1.80
2019-02-27T21:46:16.206Z,1.60
2019-02-27T21:48:44.755Z,1.60
2019-02-27T21:51:13.716Z,1.60
2019-02-27T21:53:43.108Z,1.70
2019-02-27T21:56:11.670Z,1.70
2019-02-27T21:58:40.256Z,1.70
2019-02-27T22:01:08.838Z,1.60
2019-02-27T22:03:38.400Z,1.50
2019-02-27T22:06:07.914Z,1.70
2019-02-27T22:08:38.911Z,1.70
2019-02-27T22:11:06.775Z,1.57
2019-02-27T22:13:35.403Z,1.70
2019-02-27T22:16:04.003Z,1.70
2019-02-27T22:18:32.565Z,1.60
2019-02-27T22:21:01.226Z,1.43
2019-02-27T22:23:29.788Z,1.60
2019-02-27T22:25:58.367Z,1.80
2019-02-27T22:28:28.733Z,1.70
2019-02-27T22:30:57.250Z,1.70
2019-02-27T22:33:25.810Z,1.70
2019-02-27T22:35:54.359Z,1.80
2019-02-27T22:38:26.100Z,1.57
2019-02-27T22:40:53.539Z,1.77
2019-02-27T22:43:22.802Z,1.70
2019-02-27T22:45:51.468Z,1.70
2019-02-27T22:48:20.019Z,1.80
2019-02-27T22:50:48.576Z,1.60
2019-02-27T22:53:17.154Z,1.50
2019-02-27T22:55:45.736Z,2.13
2019-02-27T22:58:14.310Z,1.70
2019-02-27T23:01:21.927Z,1.67
2019-02-27T23:03:55.031Z,1.60
2019-02-27T23:06:24.830Z,1.70
2019-02-27T23:08:54.432Z,1.60
2019-02-27T23:11:23.618Z,1.77
2019-02-27T23:13:52.194Z,1.70
2019-02-27T23:16:20.889Z,1.70
2019-02-27T23:18:49.446Z,1.80
2019-02-27T23:21:18.039Z,1.73
2019-02-27T23:23:46.798Z,1.50
2019-02-27T23:26:19.795Z,1.80
2019-02-27T23:28:45.662Z,1.80
2019-02-27T23:31:14.230Z,1.60
2019-02-27T23:33:42.803Z,1.73
2019-02-27T23:36:11.414Z,1.70
2019-02-27T23:38:40.014Z,1.70
2019-02-27T23:41:08.682Z,1.77
2019-02-27T23:43:37.347Z,1.70
2019-02-27T23:46:05.938Z,1.80
2019-02-27T23:48:36.123Z,1.60
2019-02-27T23:51:04.846Z,1.50
2019-02-27T23:53:33.448Z,1.70
2019-02-27T23:56:02.015Z,1.73
2019-02-27T23:58:30.590Z,1.90
